sensor_id;sensor_type;location;lat;lon;timestamp;P1;durP1;ratioP1;P2;durP2;ratioP2
82265;SDS011;71866;53.340;-6.308;2024-03-08T01:25:15;26.52;;;10.15;;
82265;SDS011;71866;53.340;-6.308;2024-03-08T01:27:42;31.02;;;14.77;;
82265;SDS011;71866;53.340;-6.308;2024-03-08T01:30:09;32.72;;;16.02;;
82265;SDS011;71866;53.340;-6.308;2024-03-08T01:32:37;34.25;;;16.13;;
82265;SDS011;71866;53.340;-6.308;2024-03-08T01:35:03;36.70;;;16.15;;
82265;SDS011;71866;53.340;-6.308;2024-03-08T01:37:32;34.10;;;16.73;;
82265;SDS011;71866;53.340;-6.308;2024-03-08T01:39:59;31.05;;;16.15;;
82265;SDS011;71866;53.340;-6.308;2024-03-08T01:42:26;33.97;;;16.27;;
82265;SDS011;71866;53.340;-6.308;2024-03-08T01:44:52;33.42;;;16.17;;
82265;SDS011;71866;53.340;-6.308;2024-03-08T01:47:23;35.08;;;15.63;;
82265;SDS011;71866;53.340;-6.308;2024-03-08T01:49:51;33.40;;;16.25;;
82265;SDS011;71866;53.340;-6.308;2024-03-08T01:52:18;32.78;;;15.70;;
82265;SDS011;71866;53.340;-6.308;2024-03-08T01:54:45;31.83;;;16.15;;
82265;SDS011;71866;53.340;-6.308;2024-03-08T01:57:13;35.20;;;16.25;;
82265;SDS011;71866;53.340;-6.308;2024-03-08T01:59:40;33.50;;;16.17;;
82265;SDS011;71866;53.340;-6.308;2024-03-08T02:02:07;32.30;;;15.70;;
82265;SDS011;71866;53.340;-6.308;2024-03-08T02:04:35;29.25;;;15.25;;
82265;SDS011;71866;53.340;-6.308;2024-03-08T02:07:03;33.13;;;16.63;;
82265;SDS011;71866;53.340;-6.308;2024-03-08T02:09:33;29.27;;;15.45;;
82265;SDS011;71866;53.340;-6.308;2024-03-08T02:12:00;32.78;;;16.58;;
82265;SDS011;71866;53.340;-6.308;2024-03-08T02:14:26;32.45;;;15.60;;
82265;SDS011;71866;53.340;-6.308;2024-03-08T02:16:54;31.48;;;15.60;;
82265;SDS011;71866;53.340;-6.308;2024-03-08T02:19:20;33.70;;;16.17;;
82265;SDS011;71866;53.340;-6.308;2024-03-08T02:21:48;32.33;;;15.97;;
82265;SDS011;71866;53.340;-6.308;2024-03-08T02:24:14;33.35;;;15.40;;
82265;SDS011;71866;53.340;-6.308;2024-03-08T02:26:41;31.77;;;15.52;;
82265;SDS011;71866;53.340;-6.308;2024-03-08T02:29:09;30.30;;;15.27;;
82265;SDS011;71866;53.340;-6.308;2024-03-08T02:31:35;30.25;;;15.50;;
82265;SDS011;71866;53.340;-6.308;2024-03-08T02:34:02;29.95;;;14.23;;
82265;SDS011;71866;53.340;-6.308;2024-03-08T02:36:29;29.98;;;14.93;;
82265;SDS011;71866;53.340;-6.308;2024-03-08T02:38:56;28.88;;;15.10;;
82265;SDS011;71866;53.340;-6.308;2024-03-08T02:41:23;30.75;;;15.10;;
82265;SDS011;71866;53.340;-6.308;2024-03-08T02:43:50;29.00;;;14.98;;
82265;SDS011;71866;53.340;-6.308;2024-03-08T02:46:19;30.63;;;15.45;;
82265;SDS011;71866;53.340;-6.308;2024-03-08T02:48:45;31.17;;;15.40;;
82265;SDS011;71866;53.340;-6.308;2024-03-08T02:51:13;29.98;;;14.68;;
82265;SDS011;71866;53.340;-6.308;2024-03-08T02:53:41;31.57;;;14.93;;
82265;SDS011;71866;53.340;-6.308;2024-03-08T02:56:07;29.80;;;14.90;;
82265;SDS011;71866;53.340;-6.308;2024-03-08T02:58:34;31.67;;;15.30;;
82265;SDS011;71866;53.340;-6.308;2024-03-08T03:01:01;30.70;;;15.17;;
82265;SDS011;71866;53.340;-6.308;2024-03-08T03:03:27;30.42;;;15.43;;
82265;SDS011;71866;53.340;-6.308;2024-03-08T03:05:55;30.98;;;15.10;;
82265;SDS011;71866;53.340;-6.308;2024-03-08T03:08:21;33.35;;;15.38;;
82265;SDS011;71866;53.340;-6.308;2024-03-08T03:10:48;30.77;;;15.50;;
82265;SDS011;71866;53.340;-6.308;2024-03-08T03:13:15;30.02;;;15.23;;
82265;SDS011;71866;53.340;-6.308;2024-03-08T03:15:43;33.38;;;15.52;;
82265;SDS011;71866;53.340;-6.308;2024-03-08T03:18:09;30.52;;;15.50;;
82265;SDS011;71866;53.340;-6.308;2024-03-08T03:20:37;28.35;;;14.85;;
82265;SDS011;71866;53.340;-6.308;2024-03-08T03:23:04;27.73;;;13.60;;
82265;SDS011;71866;53.340;-6.308;2024-03-08T03:25:31;29.08;;;14.68;;
82265;SDS011;71866;53.340;-6.308;2024-03-08T03:27:57;27.80;;;14.13;;
82265;SDS011;71866;53.340;-6.308;2024-03-08T03:30:25;28.63;;;14.15;;
82265;SDS011;71866;53.340;-6.308;2024-03-08T03:32:51;28.98;;;14.07;;
82265;SDS011;71866;53.340;-6.308;2024-03-08T03:35:20;25.90;;;13.45;;
82265;SDS011;71866;53.340;-6.308;2024-03-08T03:37:47;24.75;;;13.40;;
82265;SDS011;71866;53.340;-6.308;2024-03-08T03:40:14;27.20;;;13.82;;
82265;SDS011;71866;53.340;-6.308;2024-03-08T03:42:41;27.77;;;13.30;;
82265;SDS011;71866;53.340;-6.308;2024-03-08T03:45:08;25.20;;;13.50;;
82265;SDS011;71866;53.340;-6.308;2024-03-08T03:47:35;27.23;;;14.00;;
82265;SDS011;71866;53.340;-6.308;2024-03-08T03:50:02;26.40;;;13.57;;
82265;SDS011;71866;53.340;-6.308;2024-03-08T03:52:28;25.27;;;13.23;;
82265;SDS011;71866;53.340;-6.308;2024-03-08T03:54:56;26.95;;;13.25;;
82265;SDS011;71866;53.340;-6.308;2024-03-08T03:57:22;24.55;;;12.95;;
82265;SDS011;71866;53.340;-6.308;2024-03-08T03:59:49;24.58;;;12.88;;
82265;SDS011;71866;53.340;-6.308;2024-03-08T04:02:17;27.25;;;13.30;;
82265;SDS011;71866;53.340;-6.308;2024-03-08T04:04:43;25.45;;;11.82;;
82265;SDS011;71866;53.340;-6.308;2024-03-08T04:07:11;23.58;;;12.10;;
82265;SDS011;71866;53.340;-6.308;2024-03-08T04:09:38;26.63;;;12.52;;
82265;SDS011;71866;53.340;-6.308;2024-03-08T04:12:05;27.52;;;13.25;;
82265;SDS011;71866;53.340;-6.308;2024-03-08T04:14:32;23.70;;;12.43;;
82265;SDS011;71866;53.340;-6.308;2024-03-08T04:16:59;26.40;;;13.10;;
82265;SDS011;71866;53.340;-6.308;2024-03-08T04:19:26;25.92;;;12.55;;
82265;SDS011;71866;53.340;-6.308;2024-03-08T04:21:53;24.80;;;12.53;;
82265;SDS011;71866;53.340;-6.308;2024-03-08T04:24:20;25.77;;;12.50;;
82265;SDS011;71866;53.340;-6.308;2024-03-08T04:26:48;27.35;;;12.75;;
82265;SDS011;71866;53.340;-6.308;2024-03-08T04:29:14;27.17;;;13.00;;
82265;SDS011;71866;53.340;-6.308;2024-03-08T04:31:42;36.20;;;16.30;;
82265;SDS011;71866;53.340;-6.308;2024-03-08T04:34:09;24.73;;;12.38;;
82265;SDS011;71866;53.340;-6.308;2024-03-08T04:36:36;26.58;;;12.68;;
82265;SDS011;71866;53.340;-6.308;2024-03-08T04:39:03;25.77;;;12.30;;
82265;SDS011;71866;53.340;-6.308;2024-03-08T04:41:30;26.40;;;13.02;;
82265;SDS011;71866;53.340;-6.308;2024-03-08T04:43:57;23.75;;;12.02;;
82265;SDS011;71866;53.340;-6.308;2024-03-08T04:46:24;26.38;;;12.70;;
82265;SDS011;71866;53.340;-6.308;2024-03-08T04:48:51;27.67;;;13.23;;
82265;SDS011;71866;53.340;-6.308;2024-03-08T04:51:18;25.77;;;13.15;;
82265;SDS011;71866;53.340;-6.308;2024-03-08T04:53:45;28.15;;;13.05;;
82265;SDS011;71866;53.340;-6.308;2024-03-08T04:56:13;24.23;;;11.30;;
82265;SDS011;71866;53.340;-6.308;2024-03-08T04:58:40;29.00;;;13.35;;
82265;SDS011;71866;53.340;-6.308;2024-03-08T05:01:08;25.27;;;12.13;;
82265;SDS011;71866;53.340;-6.308;2024-03-08T05:03:34;28.58;;;12.20;;
82265;SDS011;71866;53.340;-6.308;2024-03-08T05:06:01;23.23;;;11.55;;
82265;SDS011;71866;53.340;-6.308;2024-03-08T05:08:28;26.48;;;11.25;;
82265;SDS011;71866;53.340;-6.308;2024-03-08T05:10:56;24.08;;;11.57;;
82265;SDS011;71866;53.340;-6.308;2024-03-08T05:13:22;24.98;;;11.15;;
82265;SDS011;71866;53.340;-6.308;2024-03-08T05:15:50;25.60;;;11.90;;
82265;SDS011;71866;53.340;-6.308;2024-03-08T05:18:17;25.90;;;12.20;;
82265;SDS011;71866;53.340;-6.308;2024-03-08T05:20:44;26.92;;;12.27;;
82265;SDS011;71866;53.340;-6.308;2024-03-08T05:23:11;25.48;;;11.85;;
82265;SDS011;71866;53.340;-6.308;2024-03-08T05:25:38;29.00;;;12.23;;
82265;SDS011;71866;53.340;-6.308;2024-03-08T05:28:06;26.13;;;12.05;;
82265;SDS011;71866;53.340;-6.308;2024-03-08T05:30:33;25.65;;;11.52;;
82265;SDS011;71866;53.340;-6.308;2024-03-08T05:32:59;30.17;;;12.73;;
82265;SDS011;71866;53.340;-6.308;2024-03-08T05:35:27;26.10;;;12.77;;
82265;SDS011;71866;53.340;-6.308;2024-03-08T05:37:55;27.40;;;12.57;;
82265;SDS011;71866;53.340;-6.308;2024-03-08T05:40:22;25.55;;;13.20;;
82265;SDS011;71866;53.340;-6.308;2024-03-08T05:42:48;25.52;;;12.70;;
82265;SDS011;71866;53.340;-6.308;2024-03-08T05:45:16;25.92;;;12.05;;
82265;SDS011;71866;53.340;-6.308;2024-03-08T05:47:42;29.33;;;12.83;;
82265;SDS011;71866;53.340;-6.308;2024-03-08T05:50:09;26.53;;;12.27;;
82265;SDS011;71866;53.340;-6.308;2024-03-08T05:52:37;28.95;;;12.43;;
82265;SDS011;71866;53.340;-6.308;2024-03-08T05:55:03;26.08;;;12.48;;
82265;SDS011;71866;53.340;-6.308;2024-03-08T05:57:32;26.50;;;12.32;;
82265;SDS011;71866;53.340;-6.308;2024-03-08T05:59:59;25.25;;;12.40;;
82265;SDS011;71866;53.340;-6.308;2024-03-08T06:02:26;24.23;;;12.05;;
82265;SDS011;71866;53.340;-6.308;2024-03-08T06:04:52;27.75;;;12.23;;
82265;SDS011;71866;53.340;-6.308;2024-03-08T06:07:20;25.95;;;12.25;;
82265;SDS011;71866;53.340;-6.308;2024-03-08T06:09:46;27.58;;;12.57;;
82265;SDS011;71866;53.340;-6.308;2024-03-08T06:12:14;25.02;;;12.35;;
82265;SDS011;71866;53.340;-6.308;2024-03-08T06:14:40;26.02;;;11.82;;
82265;SDS011;71866;53.340;-6.308;2024-03-08T06:17:07;26.70;;;11.75;;
82265;SDS011;71866;53.340;-6.308;2024-03-08T06:19:34;25.75;;;12.35;;
82265;SDS011;71866;53.340;-6.308;2024-03-08T06:22:01;24.77;;;12.00;;
82265;SDS011;71866;53.340;-6.308;2024-03-08T06:24:28;23.00;;;11.68;;
82265;SDS011;71866;53.340;-6.308;2024-03-08T06:26:55;25.90;;;12.65;;
82265;SDS011;71866;53.340;-6.308;2024-03-08T06:29:22;24.63;;;12.25;;
82265;SDS011;71866;53.340;-6.308;2024-03-08T06:31:49;23.73;;;11.75;;
82265;SDS011;71866;53.340;-6.308;2024-03-08T06:34:16;23.33;;;12.48;;
82265;SDS011;71866;53.340;-6.308;2024-03-08T06:36:43;26.92;;;12.55;;
82265;SDS011;71866;53.340;-6.308;2024-03-08T06:39:10;24.25;;;12.15;;
82265;SDS011;71866;53.340;-6.308;2024-03-08T06:41:37;24.83;;;12.50;;
82265;SDS011;71866;53.340;-6.308;2024-03-08T06:44:04;25.38;;;12.75;;
82265;SDS011;71866;53.340;-6.308;2024-03-08T06:46:31;27.65;;;12.85;;
82265;SDS011;71866;53.340;-6.308;2024-03-08T06:48:58;24.98;;;12.20;;
82265;SDS011;71866;53.340;-6.308;2024-03-08T06:51:25;26.55;;;13.10;;
82265;SDS011;71866;53.340;-6.308;2024-03-08T06:53:52;28.23;;;13.32;;
82265;SDS011;71866;53.340;-6.308;2024-03-08T06:56:19;26.83;;;12.75;;
82265;SDS011;71866;53.340;-6.308;2024-03-08T06:58:46;26.15;;;13.07;;
82265;SDS011;71866;53.340;-6.308;2024-03-08T07:01:13;26.15;;;12.73;;
82265;SDS011;71866;53.340;-6.308;2024-03-08T07:03:41;26.23;;;13.30;;
82265;SDS011;71866;53.340;-6.308;2024-03-08T07:06:07;26.23;;;13.32;;
82265;SDS011;71866;53.340;-6.308;2024-03-08T07:08:35;28.23;;;13.00;;
82265;SDS011;71866;53.340;-6.308;2024-03-08T07:11:01;25.85;;;13.07;;
82265;SDS011;71866;53.340;-6.308;2024-03-08T07:13:29;26.77;;;12.43;;
82265;SDS011;71866;53.340;-6.308;2024-03-08T07:15:56;27.13;;;13.05;;
82265;SDS011;71866;53.340;-6.308;2024-03-08T07:18:23;25.63;;;12.43;;
82265;SDS011;71866;53.340;-6.308;2024-03-08T07:20:51;27.08;;;12.18;;
82265;SDS011;71866;53.340;-6.308;2024-03-08T07:23:17;26.17;;;12.75;;
82265;SDS011;71866;53.340;-6.308;2024-03-08T07:25:45;24.88;;;12.30;;
82265;SDS011;71866;53.340;-6.308;2024-03-08T07:28:12;25.42;;;12.55;;
82265;SDS011;71866;53.340;-6.308;2024-03-08T07:30:39;25.37;;;12.47;;
82265;SDS011;71866;53.340;-6.308;2024-03-08T07:33:06;27.00;;;12.77;;
82265;SDS011;71866;53.340;-6.308;2024-03-08T07:35:34;27.88;;;13.38;;
82265;SDS011;71866;53.340;-6.308;2024-03-08T07:38:00;26.20;;;12.80;;
82265;SDS011;71866;53.340;-6.308;2024-03-08T07:40:28;29.13;;;12.83;;
82265;SDS011;71866;53.340;-6.308;2024-03-08T07:42:55;27.92;;;13.48;;
82265;SDS011;71866;53.340;-6.308;2024-03-08T07:45:22;28.57;;;13.37;;
82265;SDS011;71866;53.340;-6.308;2024-03-08T07:47:48;27.40;;;12.77;;
82265;SDS011;71866;53.340;-6.308;2024-03-08T07:50:16;27.45;;;12.88;;
82265;SDS011;71866;53.340;-6.308;2024-03-08T07:52:43;28.15;;;12.98;;
82265;SDS011;71866;53.340;-6.308;2024-03-08T07:55:09;26.15;;;12.98;;
82265;SDS011;71866;53.340;-6.308;2024-03-08T07:57:39;27.60;;;13.13;;
82265;SDS011;71866;53.340;-6.308;2024-03-08T08:00:05;26.40;;;12.60;;
82265;SDS011;71866;53.340;-6.308;2024-03-08T08:02:33;28.60;;;13.30;;
82265;SDS011;71866;53.340;-6.308;2024-03-08T08:05:05;28.92;;;13.32;;
82265;SDS011;71866;53.340;-6.308;2024-03-08T08:07:32;29.58;;;12.43;;
82265;SDS011;71866;53.340;-6.308;2024-03-08T08:09:59;30.42;;;13.45;;
82265;SDS011;71866;53.340;-6.308;2024-03-08T08:12:26;31.88;;;13.45;;
82265;SDS011;71866;53.340;-6.308;2024-03-08T08:14:53;23.57;;;12.53;;
82265;SDS011;71866;53.340;-6.308;2024-03-08T08:17:20;25.20;;;12.10;;
82265;SDS011;71866;53.340;-6.308;2024-03-08T08:19:46;25.63;;;12.07;;
82265;SDS011;71866;53.340;-6.308;2024-03-08T08:22:14;21.48;;;11.57;;
82265;SDS011;71866;53.340;-6.308;2024-03-08T08:24:40;24.33;;;11.38;;
82265;SDS011;71866;53.340;-6.308;2024-03-08T08:27:08;25.02;;;11.43;;
82265;SDS011;71866;53.340;-6.308;2024-03-08T08:29:35;24.00;;;11.60;;
82265;SDS011;71866;53.340;-6.308;2024-03-08T08:32:02;22.95;;;11.30;;
82265;SDS011;71866;53.340;-6.308;2024-03-08T08:34:29;23.37;;;11.63;;
82265;SDS011;71866;53.340;-6.308;2024-03-08T08:36:57;22.75;;;11.43;;
82265;SDS011;71866;53.340;-6.308;2024-03-08T08:39:23;23.35;;;11.15;;
82265;SDS011;71866;53.340;-6.308;2024-03-08T08:41:49;22.17;;;11.40;;
82265;SDS011;71866;53.340;-6.308;2024-03-08T08:44:19;23.33;;;11.57;;
82265;SDS011;71866;53.340;-6.308;2024-03-08T08:46:46;24.25;;;11.77;;
82265;SDS011;71866;53.340;-6.308;2024-03-08T08:49:14;25.77;;;12.43;;
82265;SDS011;71866;53.340;-6.308;2024-03-08T08:51:41;25.85;;;11.85;;
82265;SDS011;71866;53.340;-6.308;2024-03-08T08:54:07;24.90;;;11.43;;
82265;SDS011;71866;53.340;-6.308;2024-03-08T08:56:38;22.92;;;11.35;;
82265;SDS011;71866;53.340;-6.308;2024-03-08T08:59:04;24.35;;;11.93;;
82265;SDS011;71866;53.340;-6.308;2024-03-08T09:01:32;25.75;;;12.10;;
82265;SDS011;71866;53.340;-6.308;2024-03-08T09:04:00;27.23;;;12.80;;
82265;SDS011;71866;53.340;-6.308;2024-03-08T09:06:26;29.40;;;14.55;;
82265;SDS011;71866;53.340;-6.308;2024-03-08T09:08:52;29.73;;;14.45;;
82265;SDS011;71866;53.340;-6.308;2024-03-08T09:11:20;28.83;;;13.93;;
82265;SDS011;71866;53.340;-6.308;2024-03-08T09:13:47;26.27;;;13.38;;
82265;SDS011;71866;53.340;-6.308;2024-03-08T09:16:13;29.48;;;13.85;;
82265;SDS011;71866;53.340;-6.308;2024-03-08T09:18:41;33.45;;;14.77;;
82265;SDS011;71866;53.340;-6.308;2024-03-08T09:21:07;29.08;;;14.88;;
82265;SDS011;71866;53.340;-6.308;2024-03-08T09:23:35;27.20;;;13.13;;
82265;SDS011;71866;53.340;-6.308;2024-03-08T09:26:02;27.63;;;13.82;;
82265;SDS011;71866;53.340;-6.308;2024-03-08T09:28:35;26.13;;;13.55;;
82265;SDS011;71866;53.340;-6.308;2024-03-08T09:31:02;24.00;;;13.73;;
82265;SDS011;71866;53.340;-6.308;2024-03-08T09:33:29;28.42;;;13.75;;
82265;SDS011;71866;53.340;-6.308;2024-03-08T09:35:58;29.85;;;14.35;;
82265;SDS011;71866;53.340;-6.308;2024-03-08T09:38:29;29.08;;;14.18;;
82265;SDS011;71866;53.340;-6.308;2024-03-08T09:40:55;29.55;;;15.07;;
82265;SDS011;71866;53.340;-6.308;2024-03-08T09:43:22;30.27;;;14.70;;
82265;SDS011;71866;53.340;-6.308;2024-03-08T09:45:49;31.92;;;16.20;;
82265;SDS011;71866;53.340;-6.308;2024-03-08T09:48:16;31.08;;;16.38;;
82265;SDS011;71866;53.340;-6.308;2024-03-08T09:50:43;31.83;;;14.90;;
82265;SDS011;71866;53.340;-6.308;2024-03-08T09:53:11;30.33;;;15.07;;
82265;SDS011;71866;53.340;-6.308;2024-03-08T09:55:38;33.17;;;14.85;;
82265;SDS011;71866;53.340;-6.308;2024-03-08T09:58:05;32.40;;;16.08;;
82265;SDS011;71866;53.340;-6.308;2024-03-08T10:00:32;32.97;;;15.83;;
82265;SDS011;71866;53.340;-6.308;2024-03-08T10:03:02;32.20;;;15.07;;
82265;SDS011;71866;53.340;-6.308;2024-03-08T10:05:30;32.83;;;15.98;;
82265;SDS011;71866;53.340;-6.308;2024-03-08T10:07:58;32.65;;;16.02;;
82265;SDS011;71866;53.340;-6.308;2024-03-08T10:10:24;32.72;;;15.73;;
82265;SDS011;71866;53.340;-6.308;2024-03-08T10:12:52;30.80;;;15.70;;
82265;SDS011;71866;53.340;-6.308;2024-03-08T10:15:18;32.33;;;15.95;;
82265;SDS011;71866;53.340;-6.308;2024-03-08T10:17:46;29.00;;;15.05;;
82265;SDS011;71866;53.340;-6.308;2024-03-08T10:20:13;30.60;;;15.70;;
82265;SDS011;71866;53.340;-6.308;2024-03-08T10:22:40;29.20;;;15.05;;
82265;SDS011;71866;53.340;-6.308;2024-03-08T10:25:09;30.65;;;14.90;;
82265;SDS011;71866;53.340;-6.308;2024-03-08T10:27:36;26.73;;;14.20;;
82265;SDS011;71866;53.340;-6.308;2024-03-08T10:30:04;28.07;;;14.73;;
82265;SDS011;71866;53.340;-6.308;2024-03-08T10:32:31;26.85;;;14.32;;
82265;SDS011;71866;53.340;-6.308;2024-03-08T10:34:58;27.98;;;13.98;;
82265;SDS011;71866;53.340;-6.308;2024-03-08T10:37:26;29.07;;;14.40;;
82265;SDS011;71866;53.340;-6.308;2024-03-08T10:40:02;27.83;;;14.05;;
82265;SDS011;71866;53.340;-6.308;2024-03-08T10:42:28;24.73;;;13.50;;
82265;SDS011;71866;53.340;-6.308;2024-03-08T10:45:06;28.13;;;13.77;;
82265;SDS011;71866;53.340;-6.308;2024-03-08T10:47:34;24.65;;;13.68;;
82265;SDS011;71866;53.340;-6.308;2024-03-08T10:52:31;27.17;;;14.03;;
82265;SDS011;71866;53.340;-6.308;2024-03-08T10:54:58;29.50;;;14.52;;
82265;SDS011;71866;53.340;-6.308;2024-03-08T10:57:26;29.63;;;14.93;;
82265;SDS011;71866;53.340;-6.308;2024-03-08T10:59:53;28.70;;;14.97;;
82265;SDS011;71866;53.340;-6.308;2024-03-08T11:02:24;31.38;;;15.13;;
82265;SDS011;71866;53.340;-6.308;2024-03-08T11:04:52;30.23;;;16.02;;
82265;SDS011;71866;53.340;-6.308;2024-03-08T11:07:20;30.65;;;15.98;;
82265;SDS011;71866;53.340;-6.308;2024-03-08T11:09:47;32.90;;;15.95;;
82265;SDS011;71866;53.340;-6.308;2024-03-08T11:14:51;36.90;;;17.48;;
82265;SDS011;71866;53.340;-6.308;2024-03-08T11:18:00;33.05;;;16.67;;
82265;SDS011;71866;53.340;-6.308;2024-03-08T11:20:12;32.13;;;16.08;;
82265;SDS011;71866;53.340;-6.308;2024-03-08T11:22:39;34.57;;;16.63;;
82265;SDS011;71866;53.340;-6.308;2024-03-08T11:25:08;33.92;;;16.05;;
82265;SDS011;71866;53.340;-6.308;2024-03-08T11:27:37;33.78;;;16.98;;
82265;SDS011;71866;53.340;-6.308;2024-03-08T11:30:07;31.67;;;16.65;;
82265;SDS011;71866;53.340;-6.308;2024-03-08T11:32:44;36.77;;;17.10;;
82265;SDS011;71866;53.340;-6.308;2024-03-08T11:35:20;32.20;;;16.58;;
82265;SDS011;71866;53.340;-6.308;2024-03-08T11:37:48;30.33;;;14.90;;
82265;SDS011;71866;53.340;-6.308;2024-03-08T11:40:16;32.60;;;16.58;;
82265;SDS011;71866;53.340;-6.308;2024-03-08T11:42:45;32.78;;;16.65;;
82265;SDS011;71866;53.340;-6.308;2024-03-08T11:45:14;32.22;;;16.67;;
82265;SDS011;71866;53.340;-6.308;2024-03-08T11:47:44;31.30;;;15.85;;
82265;SDS011;71866;53.340;-6.308;2024-03-08T11:50:12;32.10;;;16.45;;
82265;SDS011;71866;53.340;-6.308;2024-03-08T11:52:39;31.80;;;16.65;;
82265;SDS011;71866;53.340;-6.308;2024-03-08T11:55:05;31.23;;;15.87;;
82265;SDS011;71866;53.340;-6.308;2024-03-08T11:57:33;35.55;;;16.92;;
82265;SDS011;71866;53.340;-6.308;2024-03-08T11:59:59;29.35;;;15.48;;
82265;SDS011;71866;53.340;-6.308;2024-03-08T12:02:26;33.55;;;16.50;;
82265;SDS011;71866;53.340;-6.308;2024-03-08T12:04:57;33.28;;;16.60;;
82265;SDS011;71866;53.340;-6.308;2024-03-08T12:07:24;32.53;;;16.85;;
82265;SDS011;71866;53.340;-6.308;2024-03-08T12:12:36;35.53;;;17.10;;
82265;SDS011;71866;53.340;-6.308;2024-03-08T12:15:03;32.53;;;16.40;;
82265;SDS011;71866;53.340;-6.308;2024-03-08T12:17:30;33.92;;;17.38;;
82265;SDS011;71866;53.340;-6.308;2024-03-08T12:19:57;35.95;;;17.98;;
82265;SDS011;71866;53.340;-6.308;2024-03-08T12:22:41;34.58;;;16.83;;
82265;SDS011;71866;53.340;-6.308;2024-03-08T12:25:07;35.08;;;17.15;;
82265;SDS011;71866;53.340;-6.308;2024-03-08T12:27:34;33.40;;;17.25;;
82265;SDS011;71866;53.340;-6.308;2024-03-08T12:30:15;34.75;;;17.45;;
82265;SDS011;71866;53.340;-6.308;2024-03-08T12:32:46;32.13;;;16.77;;
82265;SDS011;71866;53.340;-6.308;2024-03-08T12:35:13;32.88;;;16.98;;
82265;SDS011;71866;53.340;-6.308;2024-03-08T12:37:39;32.03;;;16.70;;
82265;SDS011;71866;53.340;-6.308;2024-03-08T12:40:07;31.73;;;15.98;;
82265;SDS011;71866;53.340;-6.308;2024-03-08T12:42:34;32.73;;;17.27;;
82265;SDS011;71866;53.340;-6.308;2024-03-08T12:45:00;34.63;;;16.60;;
82265;SDS011;71866;53.340;-6.308;2024-03-08T12:47:28;31.57;;;16.00;;
82265;SDS011;71866;53.340;-6.308;2024-03-08T12:49:54;31.90;;;16.03;;
82265;SDS011;71866;53.340;-6.308;2024-03-08T12:52:22;34.13;;;16.67;;
82265;SDS011;71866;53.340;-6.308;2024-03-08T12:54:48;31.85;;;15.93;;
82265;SDS011;71866;53.340;-6.308;2024-03-08T12:57:16;31.73;;;16.10;;
82265;SDS011;71866;53.340;-6.308;2024-03-08T12:59:42;34.90;;;16.45;;
82265;SDS011;71866;53.340;-6.308;2024-03-08T13:02:09;31.02;;;15.45;;
82265;SDS011;71866;53.340;-6.308;2024-03-08T13:04:36;32.72;;;16.25;;
82265;SDS011;71866;53.340;-6.308;2024-03-08T13:07:03;32.70;;;15.63;;
82265;SDS011;71866;53.340;-6.308;2024-03-08T13:09:29;31.75;;;15.95;;
82265;SDS011;71866;53.340;-6.308;2024-03-08T13:11:57;32.85;;;16.23;;
82265;SDS011;71866;53.340;-6.308;2024-03-08T13:14:24;32.75;;;15.38;;
82265;SDS011;71866;53.340;-6.308;2024-03-08T13:16:51;30.55;;;16.15;;
82265;SDS011;71866;53.340;-6.308;2024-03-08T13:19:18;32.05;;;16.50;;
82265;SDS011;71866;53.340;-6.308;2024-03-08T13:21:45;32.90;;;16.10;;
82265;SDS011;71866;53.340;-6.308;2024-03-08T13:24:11;33.03;;;16.05;;
82265;SDS011;71866;53.340;-6.308;2024-03-08T13:26:39;32.20;;;15.73;;
82265;SDS011;71866;53.340;-6.308;2024-03-08T13:29:06;29.55;;;15.40;;
82265;SDS011;71866;53.340;-6.308;2024-03-08T13:31:34;31.50;;;15.80;;
82265;SDS011;71866;53.340;-6.308;2024-03-08T13:34:00;33.17;;;16.35;;
82265;SDS011;71866;53.340;-6.308;2024-03-08T13:36:27;30.27;;;15.75;;
82265;SDS011;71866;53.340;-6.308;2024-03-08T13:38:54;38.60;;;18.33;;
82265;SDS011;71866;53.340;-6.308;2024-03-08T13:41:21;34.03;;;16.70;;
82265;SDS011;71866;53.340;-6.308;2024-03-08T13:43:48;37.60;;;17.67;;
82265;SDS011;71866;53.340;-6.308;2024-03-08T13:46:15;34.87;;;18.00;;
82265;SDS011;71866;53.340;-6.308;2024-03-08T13:48:41;33.80;;;16.58;;
82265;SDS011;71866;53.340;-6.308;2024-03-08T13:51:09;30.85;;;15.88;;
82265;SDS011;71866;53.340;-6.308;2024-03-08T13:53:36;35.13;;;16.92;;
82265;SDS011;71866;53.340;-6.308;2024-03-08T13:56:03;30.20;;;15.70;;
82265;SDS011;71866;53.340;-6.308;2024-03-08T13:58:30;30.63;;;15.75;;
82265;SDS011;71866;53.340;-6.308;2024-03-08T14:00:57;30.23;;;15.45;;
82265;SDS011;71866;53.340;-6.308;2024-03-08T14:03:25;30.60;;;15.45;;
82265;SDS011;71866;53.340;-6.308;2024-03-08T14:05:52;30.58;;;15.82;;
82265;SDS011;71866;53.340;-6.308;2024-03-08T14:08:19;29.77;;;15.70;;
82265;SDS011;71866;53.340;-6.308;2024-03-08T14:10:46;30.77;;;15.88;;
82265;SDS011;71866;53.340;-6.308;2024-03-08T14:13:13;29.33;;;15.68;;
82265;SDS011;71866;53.340;-6.308;2024-03-08T14:15:39;30.00;;;15.43;;
82265;SDS011;71866;53.340;-6.308;2024-03-08T14:18:07;29.67;;;14.98;;
82265;SDS011;71866;53.340;-6.308;2024-03-08T14:20:33;28.33;;;14.23;;
82265;SDS011;71866;53.340;-6.308;2024-03-08T14:23:01;29.50;;;14.93;;
82265;SDS011;71866;53.340;-6.308;2024-03-08T14:25:28;31.97;;;15.93;;
82265;SDS011;71866;53.340;-6.308;2024-03-08T14:27:54;31.03;;;15.40;;
82265;SDS011;71866;53.340;-6.308;2024-03-08T14:30:22;29.37;;;15.63;;
82265;SDS011;71866;53.340;-6.308;2024-03-08T14:32:48;37.00;;;17.27;;
82265;SDS011;71866;53.340;-6.308;2024-03-08T14:35:15;29.75;;;15.30;;
82265;SDS011;71866;53.340;-6.308;2024-03-08T14:37:42;28.88;;;14.73;;
82265;SDS011;71866;53.340;-6.308;2024-03-08T14:40:08;26.33;;;13.38;;
82265;SDS011;71866;53.340;-6.308;2024-03-08T14:42:36;28.25;;;14.40;;
82265;SDS011;71866;53.340;-6.308;2024-03-08T14:45:04;26.77;;;14.18;;
82265;SDS011;71866;53.340;-6.308;2024-03-08T14:47:30;28.33;;;14.52;;
82265;SDS011;71866;53.340;-6.308;2024-03-08T14:49:58;29.55;;;15.15;;
82265;SDS011;71866;53.340;-6.308;2024-03-08T14:52:24;29.23;;;14.82;;
82265;SDS011;71866;53.340;-6.308;2024-03-08T14:54:50;29.10;;;14.95;;
82265;SDS011;71866;53.340;-6.308;2024-03-08T14:57:18;27.08;;;14.38;;
82265;SDS011;71866;53.340;-6.308;2024-03-08T14:59:44;30.77;;;14.93;;
82265;SDS011;71866;53.340;-6.308;2024-03-08T15:02:12;26.65;;;13.85;;
82265;SDS011;71866;53.340;-6.308;2024-03-08T15:04:38;31.45;;;15.55;;
82265;SDS011;71866;53.340;-6.308;2024-03-08T15:07:05;32.80;;;16.42;;
82265;SDS011;71866;53.340;-6.308;2024-03-08T15:09:32;30.50;;;15.35;;
82265;SDS011;71866;53.340;-6.308;2024-03-08T15:11:59;30.95;;;15.98;;
82265;SDS011;71866;53.340;-6.308;2024-03-08T15:14:26;29.77;;;15.67;;
82265;SDS011;71866;53.340;-6.308;2024-03-08T15:16:54;28.50;;;14.90;;
82265;SDS011;71866;53.340;-6.308;2024-03-08T15:19:21;29.27;;;15.23;;
82265;SDS011;71866;53.340;-6.308;2024-03-08T15:21:48;28.30;;;14.65;;
82265;SDS011;71866;53.340;-6.308;2024-03-08T15:24:14;30.73;;;15.00;;
82265;SDS011;71866;53.340;-6.308;2024-03-08T15:26:42;28.80;;;14.82;;
82265;SDS011;71866;53.340;-6.308;2024-03-08T15:29:08;30.00;;;15.15;;
82265;SDS011;71866;53.340;-6.308;2024-03-08T15:31:36;27.10;;;13.90;;
82265;SDS011;71866;53.340;-6.308;2024-03-08T15:34:02;27.15;;;14.23;;
82265;SDS011;71866;53.340;-6.308;2024-03-08T15:36:29;26.75;;;14.13;;
82265;SDS011;71866;53.340;-6.308;2024-03-08T15:38:57;26.40;;;13.93;;
82265;SDS011;71866;53.340;-6.308;2024-03-08T15:41:23;30.30;;;15.23;;